Time;durP1;ratioP1;P1;durP2;ratioP2;P2;SDS_P1;SDS_P2;PMS_P1;PMS_P2;Temp;Humidity;BMP_temperature;BMP_pressure;BME280_temperature;BME280_humidity;BME280_pressure;Samples;Min_cycle;Max_cycle;Signal;HPM_P1;HPM_P2
2023/10/01 00:01:36;;;;;;;0.00;0.00;;;17.30;99.90;;;;;;5018223;28;20025;-83
2023/10/01 00:04:06;;;;;;;0.10;0.10;;;17.30;99.90;;;;;;5027002;28;20030;-84
2023/10/01 00:06:32;;;;;;;0.65;0.65;;;17.20;99.90;;;;;;5025423;28;20025;-84
2023/10/01 00:08:58;;;;;;;0.00;0.00;;;17.10;99.90;;;;;;5022097;28;20116;-82
2023/10/01 00:11:25;;;;;;;0.20;0.20;;;17.10;99.90;;;;;;5022042;28;20276;-82
2023/10/01 00:13:51;;;;;;;0.00;0.00;;;17.10;99.90;;;;;;5022805;28;20401;-84
2023/10/01 00:16:16;;;;;;;0.10;0.10;;;17.00;99.90;;;;;;5024969;28;20021;-84
2023/10/01 00:18:42;;;;;;;0.00;0.00;;;17.00;99.90;;;;;;5022782;28;20053;-84
2023/10/01 00:21:08;;;;;;;0.00;0.00;;;16.90;99.90;;;;;;5024047;28;20022;-83
2023/10/01 00:23:33;;;;;;;0.00;0.00;;;17.00;99.90;;;;;;5024978;28;20091;-84
2023/10/01 00:25:59;;;;;;;0.00;0.00;;;17.00;99.90;;;;;;5024787;28;20053;-84
2023/10/01 00:28:25;;;;;;;0.27;0.27;;;17.00;99.90;;;;;;5024720;28;20804;-83
2023/10/01 00:30:51;;;;;;;0.10;0.10;;;17.00;99.90;;;;;;5014784;28;20041;-83
2023/10/01 00:33:17;;;;;;;0.00;0.00;;;17.10;99.90;;;;;;5024017;28;20037;-83
2023/10/01 00:35:42;;;;;;;0.00;0.00;;;16.90;99.90;;;;;;5023865;28;20025;-84
2023/10/01 00:38:09;;;;;;;0.00;0.00;;;16.90;99.90;;;;;;5025130;28;20029;-83
2023/10/01 00:40:35;;;;;;;0.28;0.28;;;17.00;99.90;;;;;;5024836;28;20057;-85
2023/10/01 00:43:04;;;;;;;0.00;0.00;;;17.00;99.90;;;;;;5025250;28;20049;-84
2023/10/01 00:45:30;;;;;;;0.00;0.00;;;16.90;99.90;;;;;;5025638;28;20075;-85
2023/10/01 00:47:59;;;;;;;0.00;0.00;;;16.90;99.90;;;;;;5024208;28;20041;-86
2023/10/01 00:50:25;;;;;;;0.00;0.00;;;16.90;99.90;;;;;;5016879;28;20040;-86
2023/10/01 00:52:56;;;;;;;0.00;0.00;;;16.90;99.90;;;;;;5015033;28;20405;-84
2023/10/01 00:55:23;;;;;;;0.00;0.00;;;16.90;99.90;;;;;;5025658;28;20025;-85
2023/10/01 00:57:50;;;;;;;0.00;0.00;;;16.80;99.90;;;;;;5024285;28;20033;-84
2023/10/01 01:00:19;;;;;;;0.00;0.00;;;16.90;99.90;;;;;;5025101;28;20056;-85
2023/10/01 01:05:57;;;;;;;0.00;0.00;;;16.80;99.90;;;;;;5019046;28;20037;-84
2023/10/01 01:08:33;;;;;;;0.10;0.10;;;16.70;99.90;;;;;;5023176;28;20470;-84
2023/10/01 01:11:01;;;;;;;0.00;0.00;;;16.70;99.90;;;;;;5018938;28;20030;-83
2023/10/01 01:13:29;;;;;;;0.00;0.00;;;16.70;99.90;;;;;;5024230;28;20037;-84
2023/10/01 01:15:57;;;;;;;0.00;0.00;;;16.70;99.90;;;;;;5021490;28;20028;-83
2023/10/01 01:18:26;;;;;;;0.00;0.00;;;16.70;99.90;;;;;;5023375;28;20076;-83
2023/10/01 01:21:04;;;;;;;0.00;0.00;;;16.70;99.90;;;;;;5009267;28;20041;-83
2023/10/01 01:23:31;;;;;;;0.00;0.00;;;16.70;99.90;;;;;;5021948;28;20033;-83
2023/10/01 01:25:57;;;;;;;0.00;0.00;;;16.70;99.90;;;;;;5020574;28;20053;-83
2023/10/01 01:28:32;;;;;;;0.00;0.00;;;16.60;99.90;;;;;;5020448;28;20033;-83
2023/10/01 01:30:59;;;;;;;0.10;0.10;;;16.60;99.90;;;;;;5022514;28;20049;-83
2023/10/01 01:34:12;;;;;;;0.00;0.00;;;16.60;99.90;;;;;;5021374;28;20536;-82
2023/10/01 01:36:14;;;;;;;0.00;0.00;;;16.60;99.90;;;;;;5020529;28;20064;-83
2023/10/01 01:39:12;;;;;;;0.00;0.00;;;16.50;99.90;;;;;;5023183;28;20175;-83
2023/10/01 01:41:48;;;;;;;0.00;0.00;;;16.50;99.90;;;;;;5020979;28;20389;-83
2023/10/01 01:44:14;;;;;;;0.08;0.08;;;16.50;99.90;;;;;;5018374;28;20064;-83
2023/10/01 01:46:49;;;;;;;;;;;16.50;99.90;;;;;;5014251;28;20025;-82
2023/10/01 01:49:17;;;;;;;0.00;0.00;;;16.40;99.90;;;;;;5021802;28;19960;-82
2023/10/01 01:51:56;;;;;;;0.00;0.00;;;16.30;99.90;;;;;;5021072;28;20033;-83
2023/10/01 01:54:31;;;;;;;0.00;0.00;;;16.30;99.90;;;;;;5021272;28;20037;-80
2023/10/01 01:56:57;;;;;;;0.00;0.00;;;16.20;99.90;;;;;;5021367;28;20021;-85
2023/10/01 01:59:27;;;;;;;0.00;0.00;;;16.20;99.90;;;;;;5011200;28;20026;-82
2023/10/01 02:01:56;;;;;;;0.00;0.00;;;16.20;99.90;;;;;;5017112;28;20034;-83
2023/10/01 02:04:23;;;;;;;0.00;0.00;;;16.10;99.90;;;;;;5021313;28;20493;-82
2023/10/01 02:06:52;;;;;;;0.00;0.00;;;16.10;99.90;;;;;;5023003;28;20053;-83
2023/10/01 02:09:24;;;;;;;0.10;0.10;;;16.10;99.90;;;;;;5021832;28;20048;-83
2023/10/01 02:11:52;;;;;;;0.00;0.00;;;16.00;99.90;;;;;;5023019;28;20032;-84
2023/10/01 02:14:30;;;;;;;0.08;0.08;;;16.00;99.90;;;;;;5018988;28;20110;-83
2023/10/01 02:17:13;;;;;;;0.52;0.52;;;16.10;99.90;;;;;;5018823;28;20022;-83
2023/10/01 02:19:40;;;;;;;0.95;0.95;;;15.90;99.90;;;;;;5019866;28;20916;-85
2023/10/01 02:22:08;;;;;;;0.28;0.28;;;15.90;99.90;;;;;;5021512;28;20055;-84
2023/10/01 02:24:54;;;;;;;0.00;0.00;;;15.90;99.90;;;;;;5015881;28;20100;-82
2023/10/01 02:27:20;;;;;;;0.00;0.00;;;15.80;99.90;;;;;;5019414;28;20053;-83
2023/10/01 02:30:11;;;;;;;0.00;0.00;;;15.80;99.90;;;;;;5021571;28;20284;-84
2023/10/01 02:32:33;;;;;;;0.00;0.00;;;15.70;99.90;;;;;;5018854;28;20063;-83
2023/10/01 02:34:59;;;;;;;;;;;15.60;99.90;;;;;;5022236;28;20030;-83
2023/10/01 02:37:35;;;;;;;0.10;0.10;;;15.60;99.90;;;;;;5020943;28;19919;-83
2023/10/01 02:40:14;;;;;;;0.00;0.00;;;15.60;99.90;;;;;;5022484;28;20069;-82
2023/10/01 02:42:44;;;;;;;0.00;0.00;;;15.50;99.90;;;;;;5020633;28;20497;-84
2023/10/01 02:45:30;;;;;;;;;;;15.60;99.90;;;;;;5022259;28;20167;-82
2023/10/01 02:48:12;;;;;;;0.10;0.10;;;15.60;99.90;;;;;;5021907;28;20586;-82
2023/10/01 02:50:45;;;;;;;0.40;0.40;;;15.60;99.90;;;;;;5022614;28;20021;-81
2023/10/01 02:53:14;;;;;;;0.00;0.00;;;15.70;99.90;;;;;;5020943;28;20033;-81
2023/10/01 02:55:44;;;;;;;0.00;0.00;;;15.60;99.90;;;;;;5023002;28;20026;-80
2023/10/01 02:58:23;;;;;;;0.10;0.10;;;15.60;99.90;;;;;;5022335;28;20389;-82
2023/10/01 03:00:53;;;;;;;0.10;0.10;;;15.50;99.90;;;;;;5022208;28;20503;-82
2023/10/01 03:03:19;;;;;;;0.10;0.10;;;15.50;99.90;;;;;;5016810;28;20029;-82
2023/10/01 03:05:46;;;;;;;0.00;0.00;;;15.50;99.90;;;;;;5020690;28;20053;-81
2023/10/01 03:08:40;;;;;;;0.00;0.00;;;15.50;99.90;;;;;;5022472;28;20035;-82
2023/10/01 03:11:04;;;;;;;0.00;0.00;;;15.50;99.90;;;;;;5022285;28;20228;-81
2023/10/01 03:13:31;;;;;;;0.10;0.10;;;15.40;99.90;;;;;;5023004;28;20025;-82
2023/10/01 03:18:46;;;;;;;0.08;0.08;;;15.30;99.90;;;;;;5022947;28;20036;-82
2023/10/01 03:21:19;;;;;;;0.17;0.17;;;15.20;99.90;;;;;;5022679;28;20029;-83
2023/10/01 03:23:54;;;;;;;0.55;0.38;;;15.10;99.90;;;;;;5023601;28;20021;-81
2023/10/01 03:26:25;;;;;;;0.10;0.10;;;15.10;99.90;;;;;;5022579;28;20044;-82
2023/10/01 03:31:37;;;;;;;0.00;0.00;;;15.00;99.90;;;;;;5022393;28;20088;-83
2023/10/01 03:34:04;;;;;;;0.08;0.08;;;15.10;99.90;;;;;;5028057;28;20060;-81
2023/10/01 03:36:32;;;;;;;0.00;0.00;;;15.00;99.90;;;;;;5026698;28;20287;-81
2023/10/01 03:42:03;;;;;;;0.00;0.00;;;15.00;99.90;;;;;;5023811;28;20041;-81
2023/10/01 03:47:29;;;;;;;0.00;0.00;;;15.00;99.90;;;;;;5014926;28;20386;-84
2023/10/01 03:49:58;;;;;;;0.08;0.08;;;14.90;99.90;;;;;;5025906;28;20030;-81
2023/10/01 03:52:29;;;;;;;0.00;0.00;;;15.00;99.90;;;;;;5025025;28;20041;-83
2023/10/01 03:57:24;;;;;;;0.10;0.10;;;14.90;99.90;;;;;;5024995;28;20112;-83
2023/10/01 03:59:53;;;;;;;0.00;0.00;;;14.90;99.90;;;;;;5025642;28;20022;-83
2023/10/01 04:05:21;;;;;;;0.00;0.00;;;14.80;99.90;;;;;;5017892;28;20033;-82
2023/10/01 04:07:50;;;;;;;0.00;0.00;;;14.90;99.90;;;;;;5025715;28;20148;-84
2023/10/01 04:10:38;;;;;;;0.00;0.00;;;14.80;99.90;;;;;;5026109;28;20489;-82
2023/10/01 04:13:24;;;;;;;;;;;14.80;99.90;;;;;;5032029;28;20168;-82
2023/10/01 04:15:55;;;;;;;0.00;0.00;;;14.80;99.90;;;;;;5027933;28;19916;-82
2023/10/01 04:18:21;;;;;;;0.00;0.00;;;14.80;99.90;;;;;;5022747;28;20150;-81
2023/10/01 04:23:29;;;;;;;0.00;0.00;;;14.70;99.90;;;;;;5025185;28;20296;-83
2023/10/01 04:26:04;;;;;;;0.00;0.00;;;14.60;99.90;;;;;;5024642;28;20106;-82
2023/10/01 04:28:35;;;;;;;0.00;0.00;;;14.60;99.90;;;;;;5023150;28;20021;-84
2023/10/01 04:31:15;;;;;;;0.00;0.00;;;14.50;99.90;;;;;;5024792;28;20052;-82
2023/10/01 04:33:43;;;;;;;0.32;0.32;;;14.40;99.90;;;;;;5018783;28;20121;-81
2023/10/01 04:36:16;;;;;;;0.00;0.00;;;14.40;99.90;;;;;;5019519;28;20036;-81
2023/10/01 04:38:43;;;;;;;0.00;0.00;;;14.30;99.90;;;;;;5036642;28;20026;-81
2023/10/01 04:41:19;;;;;;;0.00;0.00;;;14.40;99.90;;;;;;5024571;28;20073;-82
2023/10/01 04:43:52;;;;;;;0.00;0.00;;;14.40;99.90;;;;;;5024919;28;20028;-81
2023/10/01 04:46:24;;;;;;;0.00;0.00;;;14.40;99.90;;;;;;5017248;28;20034;-82
2023/10/01 04:48:51;;;;;;;0.00;0.00;;;14.40;99.90;;;;;;5025519;28;20065;-81
2023/10/01 04:51:17;;;;;;;0.00;0.00;;;14.40;99.90;;;;;;5027074;28;20026;-83
2023/10/01 04:53:46;;;;;;;0.00;0.00;;;14.40;99.90;;;;;;5032371;28;20147;-84
2023/10/01 04:56:20;;;;;;;14.40;1.65;;;14.30;99.90;;;;;;5024308;28;20033;-83
2023/10/01 04:58:51;;;;;;;0.00;0.00;;;14.40;99.90;;;;;;5024729;28;20021;-84
2023/10/01 05:01:23;;;;;;;0.90;0.77;;;14.30;99.90;;;;;;5024962;28;20036;-82
2023/10/01 05:03:54;;;;;;;0.00;0.00;;;14.20;99.90;;;;;;5023595;28;20028;-83
2023/10/01 05:06:20;;;;;;;0.00;0.00;;;14.20;99.90;;;;;;5025071;28;20116;-83
2023/10/01 05:08:51;;;;;;;0.00;0.00;;;14.20;99.90;;;;;;5023090;28;20440;-82
2023/10/01 05:11:21;;;;;;;0.00;0.00;;;14.30;99.90;;;;;;5024174;28;20091;-85
2023/10/01 05:13:53;;;;;;;0.00;0.00;;;14.10;99.90;;;;;;5024544;28;20112;-85
2023/10/01 05:16:26;;;;;;;0.00;0.00;;;14.20;99.90;;;;;;5024044;28;20025;-86
2023/10/01 05:19:13;;;;;;;0.00;0.00;;;14.10;99.90;;;;;;5023134;28;20036;-86
2023/10/01 05:21:46;;;;;;;0.30;0.30;;;14.20;99.90;;;;;;5024068;28;20052;-85
2023/10/01 05:24:16;;;;;;;0.13;0.13;;;14.10;99.90;;;;;;5022694;28;20045;-81
2023/10/01 05:26:43;;;;;;;0.00;0.00;;;14.00;99.90;;;;;;5024325;28;20029;-83
2023/10/01 05:29:13;;;;;;;0.00;0.00;;;14.00;99.90;;;;;;5023028;28;20726;-83
2023/10/01 05:31:40;;;;;;;0.10;0.10;;;14.00;99.90;;;;;;5020867;28;20877;-84
2023/10/01 05:34:05;;;;;;;0.00;0.00;;;13.90;99.90;;;;;;5022711;28;20063;-81
2023/10/01 05:36:32;;;;;;;0.10;0.10;;;13.90;99.90;;;;;;5021872;28;20128;-83
2023/10/01 05:39:00;;;;;;;0.00;0.00;;;13.90;99.90;;;;;;5023653;28;20875;-83
2023/10/01 05:41:32;;;;;;;0.17;0.17;;;14.00;99.90;;;;;;5023696;28;20489;-82
2023/10/01 05:44:01;;;;;;;0.10;0.10;;;13.90;99.90;;;;;;5023164;28;20018;-83
2023/10/01 05:46:28;;;;;;;0.00;0.00;;;13.90;99.90;;;;;;5023250;28;20824;-83
2023/10/01 05:49:00;;;;;;;0.03;0.03;;;13.80;99.90;;;;;;5022893;28;20029;-76
2023/10/01 05:51:43;;;;;;;0.10;0.10;;;13.90;99.90;;;;;;5021675;28;20068;-79
2023/10/01 05:54:09;;;;;;;0.00;0.00;;;13.90;99.90;;;;;;5019010;28;20155;-79
2023/10/01 05:56:47;;;;;;;0.00;0.00;;;13.90;99.90;;;;;;5023001;28;20053;-74
2023/10/01 05:59:14;;;;;;;0.05;0.05;;;13.90;99.90;;;;;;5021614;28;20061;-75
2023/10/01 06:01:40;;;;;;;0.00;0.00;;;13.80;99.90;;;;;;5020234;28;20034;-75
2023/10/01 06:04:12;;;;;;;0.00;0.00;;;13.90;99.90;;;;;;5014686;28;20100;-75
2023/10/01 06:06:42;;;;;;;0.00;0.00;;;14.30;99.90;;;;;;5021428;28;20021;-76
2023/10/01 06:09:14;;;;;;;0.00;0.00;;;14.30;99.90;;;;;;5020464;28;20036;-77
2023/10/01 06:11:44;;;;;;;3.40;0.65;;;14.50;99.90;;;;;;5016554;28;20052;-77
2023/10/01 06:17:00;;;;;;;0.10;0.10;;;14.60;99.90;;;;;;5019670;28;20052;-75
2023/10/01 06:19:26;;;;;;;0.00;0.00;;;15.00;99.90;;;;;;5020949;28;20506;-77
2023/10/01 06:21:53;;;;;;;0.00;0.00;;;15.30;99.90;;;;;;5020434;28;20489;-77
2023/10/01 06:24:21;;;;;;;0.00;0.00;;;15.50;99.90;;;;;;5019820;28;20084;-77
2023/10/01 06:26:47;;;;;;;0.20;0.20;;;15.60;99.90;;;;;;5017542;28;20519;-76
2023/10/01 06:29:13;;;;;;;0.00;0.00;;;15.70;99.90;;;;;;5016707;28;20030;-75
2023/10/01 06:34:39;;;;;;;0.00;0.00;;;16.20;99.90;;;;;;5017468;28;20037;-75
2023/10/01 06:37:05;;;;;;;0.23;0.23;;;16.10;99.90;;;;;;5021198;28;20408;-75
2023/10/01 06:39:35;;;;;;;0.00;0.00;;;16.50;99.90;;;;;;5019653;28;20562;-75
2023/10/01 06:42:23;;;;;;;0.00;0.00;;;16.80;98.60;;;;;;5020069;28;20034;-75
2023/10/01 06:44:49;;;;;;;0.00;0.00;;;17.00;97.60;;;;;;5018318;28;20130;-76
2023/10/01 06:47:18;;;;;;;0.00;0.00;;;17.40;96.50;;;;;;5017069;28;20109;-75
2023/10/01 06:49:57;;;;;;;0.28;0.28;;;17.80;95.70;;;;;;5011486;28;21746;-76
2023/10/01 06:52:25;;;;;;;0.00;0.00;;;17.90;94.90;;;;;;5023113;28;20037;-76
2023/10/01 06:54:52;;;;;;;0.00;0.00;;;18.00;94.90;;;;;;5011857;28;20060;-76
2023/10/01 06:57:21;;;;;;;0.00;0.00;;;18.40;93.80;;;;;;5022238;28;20025;-76
2023/10/01 06:59:47;;;;;;;0.00;0.00;;;18.70;93.30;;;;;;5018041;28;21013;-75
2023/10/01 07:02:13;;;;;;;0.00;0.00;;;18.60;93.50;;;;;;5019432;28;20022;-76
2023/10/01 07:04:41;;;;;;;0.00;0.00;;;18.80;93.40;;;;;;5020053;28;20053;-77
2023/10/01 07:07:20;;;;;;;0.00;0.00;;;18.90;93.00;;;;;;5024321;28;20029;-76
2023/10/01 07:09:46;;;;;;;0.00;0.00;;;19.20;91.80;;;;;;5025170;28;20028;-77
2023/10/01 07:12:12;;;;;;;0.00;0.00;;;19.20;92.20;;;;;;5024244;28;20038;-82
2023/10/01 07:14:38;;;;;;;1.55;1.45;;;19.10;92.50;;;;;;5029879;28;20025;-83
2023/10/01 07:17:18;;;;;;;0.00;0.00;;;19.80;91.10;;;;;;5031056;28;20029;-87
2023/10/01 07:19:59;;;;;;;0.00;0.00;;;20.60;88.70;;;;;;5030219;28;20045;-89
2023/10/01 07:22:32;;;;;;;0.00;0.00;;;20.90;85.60;;;;;;5028752;28;20026;-85
2023/10/01 07:25:03;;;;;;;0.00;0.00;;;20.80;84.30;;;;;;5030675;28;20132;-85
2023/10/01 07:27:29;;;;;;;0.00;0.00;;;20.90;84.80;;;;;;5031101;28;20254;-86
2023/10/01 07:29:56;;;;;;;0.00;0.00;;;21.10;83.40;;;;;;5028511;28;20037;-86
2023/10/01 07:32:24;;;;;;;0.00;0.00;;;21.40;80.90;;;;;;5040856;28;20895;-85
2023/10/01 07:34:58;;;;;;;0.00;0.00;;;21.30;81.40;;;;;;5029209;28;20030;-85
2023/10/01 07:37:31;;;;;;;0.00;0.00;;;21.20;80.30;;;;;;5027586;28;20083;-84
2023/10/01 07:40:16;;;;;;;0.00;0.00;;;21.20;81.70;;;;;;5021341;28;20148;-85
2023/10/01 07:42:49;;;;;;;0.00;0.00;;;21.70;80.30;;;;;;5025906;28;20570;-86
2023/10/01 07:45:16;;;;;;;0.00;0.00;;;22.00;78.40;;;;;;5018521;28;20029;-88
2023/10/01 07:47:43;;;;;;;0.00;0.00;;;22.20;78.00;;;;;;5026372;28;20021;-85
2023/10/01 07:50:12;;;;;;;;;;;22.70;76.10;;;;;;5027318;28;20037;-85
2023/10/01 07:52:40;;;;;;;0.00;0.00;;;22.50;76.40;;;;;;5026934;28;19983;-83
2023/10/01 07:55:35;;;;;;;0.63;0.63;;;22.80;75.00;;;;;;5025209;28;20030;-82
2023/10/01 08:00:47;;;;;;;0.43;0.43;;;22.50;74.10;;;;;;5018792;28;20116;-83
2023/10/01 08:05:49;;;;;;;0.00;0.00;;;23.00;73.70;;;;;;5024112;28;20065;-82
2023/10/01 08:08:37;;;;;;;0.00;0.00;;;23.50;73.30;;;;;;5024894;28;20101;-83
2023/10/01 08:11:03;;;;;;;0.00;0.00;;;23.90;72.90;;;;;;5020894;28;20033;-81
2023/10/01 08:13:30;;;;;;;0.00;0.00;;;23.60;70.20;;;;;;5021394;28;20022;-82
2023/10/01 08:16:01;;;;;;;0.00;0.00;;;23.50;72.50;;;;;;5012265;28;20036;-80
2023/10/01 08:18:39;;;;;;;0.00;0.00;;;23.70;71.40;;;;;;5025084;28;20155;-80
2023/10/01 08:21:15;;;;;;;0.00;0.00;;;24.40;69.50;;;;;;5024920;28;20045;-81
2023/10/01 08:23:48;;;;;;;0.00;0.00;;;24.10;69.00;;;;;;5018498;28;20854;-81
2023/10/01 08:29:03;;;;;;;0.00;0.00;;;24.40;68.00;;;;;;5023284;28;20040;-81
2023/10/01 08:34:23;;;;;;;0.10;0.10;;;24.80;65.90;;;;;;5019268;28;20037;-81
2023/10/01 08:36:56;;;;;;;0.00;0.00;;;25.50;66.90;;;;;;5024384;28;20029;-81
2023/10/01 08:42:22;;;;;;;0.00;0.00;;;25.70;63.80;;;;;;4994891;28;20061;-81
2023/10/01 08:44:52;;;;;;;0.00;0.00;;;25.90;64.30;;;;;;5023641;28;20026;-81
2023/10/01 08:47:21;;;;;;;0.40;0.40;;;25.30;63.60;;;;;;5024391;28;20025;-80
2023/10/01 08:49:51;;;;;;;0.00;0.00;;;26.00;63.00;;;;;;5022609;28;20598;-79
2023/10/01 08:52:25;;;;;;;0.00;0.00;;;26.00;63.80;;;;;;5024305;28;20156;-81
2023/10/01 08:54:53;;;;;;;0.38;0.10;;;26.40;62.00;;;;;;5024078;28;20033;-81
2023/10/01 08:57:43;;;;;;;0.00;0.00;;;26.60;61.60;;;;;;5017997;28;20859;-81
2023/10/01 09:00:20;;;;;;;0.00;0.00;;;26.30;61.10;;;;;;5023202;28;20792;-80
2023/10/01 09:03:07;;;;;;;0.00;0.00;;;26.30;62.60;;;;;;5036746;28;20452;-81
2023/10/01 09:05:34;;;;;;;0.03;0.03;;;26.10;61.10;;;;;;5019264;28;20037;-80
2023/10/01 09:08:15;;;;;;;0.00;0.00;;;26.60;62.70;;;;;;5023705;28;20025;-81
2023/10/01 09:10:51;;;;;;;0.10;0.10;;;27.20;62.30;;;;;;5014005;28;20501;-81
2023/10/01 09:13:21;;;;;;;0.00;0.00;;;26.90;61.50;;;;;;5015367;28;20037;-80
2023/10/01 09:15:47;;;;;;;0.00;0.00;;;26.90;59.70;;;;;;5020881;28;20079;-82
2023/10/01 09:18:20;;;;;;;0.10;0.10;;;26.60;61.30;;;;;;5022510;28;20484;-81
2023/10/01 09:21:20;;;;;;;0.00;0.00;;;26.80;61.70;;;;;;5021527;28;20152;-81
2023/10/01 09:23:54;;;;;;;0.00;0.00;;;27.00;61.50;;;;;;5023112;28;20038;-81
2023/10/01 09:26:41;;;;;;;0.00;0.00;;;27.40;60.60;;;;;;5021630;28;20033;-82
2023/10/01 09:29:21;;;;;;;0.00;0.00;;;27.60;60.20;;;;;;5021134;28;20048;-82
2023/10/01 09:31:57;;;;;;;0.00;0.00;;;27.80;59.60;;;;;;5022863;28;20037;-83
2023/10/01 09:34:31;;;;;;;0.00;0.00;;;27.90;60.60;;;;;;5019629;28;20622;-82
2023/10/01 09:37:53;;;;;;;0.00;0.00;;;27.90;59.20;;;;;;5021660;28;20017;-83
2023/10/01 09:40:32;;;;;;;0.00;0.00;;;27.60;60.50;;;;;;5016137;28;20053;-85
2023/10/01 09:42:57;;;;;;;0.00;0.00;;;26.70;60.00;;;;;;5022971;28;20029;-82
2023/10/01 09:45:29;;;;;;;0.00;0.00;;;26.30;61.90;;;;;;5021164;28;20034;-82
2023/10/01 09:48:09;;;;;;;0.00;0.00;;;25.90;61.90;;;;;;5021961;28;20117;-83
2023/10/01 09:50:41;;;;;;;0.00;0.00;;;25.50;62.60;;;;;;5021466;28;20063;-82
2023/10/01 09:53:31;;;;;;;0.00;0.00;;;25.20;62.00;;;;;;5033044;28;20021;-82
2023/10/01 09:55:59;;;;;;;0.00;0.00;;;25.50;64.00;;;;;;5012197;28;20025;-83
2023/10/01 09:58:25;;;;;;;0.00;0.00;;;25.30;64.20;;;;;;5021726;28;20032;-84
2023/10/01 10:01:00;;;;;;;0.00;0.00;;;25.80;64.70;;;;;;5021455;28;20032;-82
2023/10/01 10:03:37;;;;;;;0.00;0.00;;;25.60;66.10;;;;;;5014826;28;20485;-82
2023/10/01 10:06:06;;;;;;;0.00;0.00;;;25.70;65.30;;;;;;5023494;28;20030;-83
2023/10/01 10:08:37;;;;;;;0.00;0.00;;;25.80;64.50;;;;;;5019923;28;20036;-84
2023/10/01 10:11:06;;;;;;;0.00;0.00;;;26.00;65.30;;;;;;5016193;28;20050;-89
2023/10/01 10:13:45;;;;;;;0.00;0.00;;;25.90;62.70;;;;;;5019918;28;20025;-82
2023/10/01 10:16:31;;;;;;;0.00;0.00;;;26.00;63.80;;;;;;5021069;28;20099;-83
2023/10/01 10:19:05;;;;;;;0.00;0.00;;;26.00;62.50;;;;;;5018587;28;20021;-84
2023/10/01 10:24:30;;;;;;;0.00;0.00;;;26.20;65.40;;;;;;5021511;28;20217;-84
2023/10/01 10:27:00;;;;;;;0.00;0.00;;;26.10;64.00;;;;;;5019798;28;20041;-85
2023/10/01 10:29:57;;;;;;;0.00;0.00;;;26.00;63.40;;;;;;5009918;28;20080;-83
2023/10/01 10:32:26;;;;;;;0.00;0.00;;;25.80;62.90;;;;;;5007047;28;20065;-83
2023/10/01 10:35:04;;;;;;;0.00;0.00;;;26.00;65.30;;;;;;5023003;28;20037;-83
2023/10/01 10:37:36;;;;;;;0.00;0.00;;;25.90;63.80;;;;;;5024957;28;20030;-84
2023/10/01 10:43:01;;;;;;;0.00;0.00;;;25.80;64.30;;;;;;5022273;28;20029;-82
2023/10/01 10:45:42;;;;;;;0.00;0.00;;;25.80;66.30;;;;;;5026866;28;20378;-82
2023/10/01 10:48:14;;;;;;;0.00;0.00;;;25.80;66.70;;;;;;5027278;28;20026;-81
2023/10/01 10:50:39;;;;;;;0.00;0.00;;;25.80;66.50;;;;;;5027132;28;20029;-81
2023/10/01 10:53:15;;;;;;;0.00;0.00;;;25.70;64.10;;;;;;5022173;28;20025;-81
2023/10/01 10:56:01;;;;;;;0.00;0.00;;;25.70;64.90;;;;;;5026191;28;20083;-82
2023/10/01 10:58:28;;;;;;;;;;;25.70;66.90;;;;;;5022735;28;20128;-81
2023/10/01 11:01:16;;;;;;;0.00;0.00;;;25.80;67.40;;;;;;5025501;28;20303;-82
2023/10/01 11:03:48;;;;;;;0.00;0.00;;;25.80;67.90;;;;;;5026862;28;20032;-81
2023/10/01 11:06:17;;;;;;;0.00;0.00;;;25.70;65.80;;;;;;5026547;28;20106;-82
2023/10/01 11:08:53;;;;;;;0.00;0.00;;;25.60;66.50;;;;;;5027598;28;20028;-82
2023/10/01 11:11:39;;;;;;;0.00;0.00;;;25.70;67.10;;;;;;5025733;28;20038;-82
2023/10/01 11:14:12;;;;;;;0.00;0.00;;;25.70;66.10;;;;;;5026441;28;20032;-82
2023/10/01 11:16:40;;;;;;;0.00;0.00;;;25.70;65.30;;;;;;5024765;28;20053;-82
2023/10/01 11:19:14;;;;;;;0.00;0.00;;;25.80;66.30;;;;;;5026464;28;20479;-83
2023/10/01 11:22:00;;;;;;;0.00;0.00;;;25.70;66.50;;;;;;5026683;28;20554;-82
2023/10/01 11:24:30;;;;;;;0.00;0.00;;;25.70;67.20;;;;;;5026333;28;20140;-82
2023/10/01 11:27:25;;;;;;;0.00;0.00;;;25.70;67.60;;;;;;5025742;28;20030;-82
2023/10/01 11:29:59;;;;;;;0.00;0.00;;;25.70;68.00;;;;;;5025173;28;20091;-82
2023/10/01 11:32:59;;;;;;;4.68;2.38;;;25.60;68.70;;;;;;5025816;28;20284;-82
2023/10/01 11:35:32;;;;;;;0.00;0.00;;;25.60;68.90;;;;;;5025928;28;20113;-82
2023/10/01 11:38:20;;;;;;;0.00;0.00;;;25.60;70.10;;;;;;5024391;28;20029;-82
2023/10/01 11:43:39;;;;;;;0.00;0.00;;;25.60;66.40;;;;;;5026086;28;20390;-81
2023/10/01 11:46:59;;;;;;;0.00;0.00;;;25.50;68.40;;;;;;5025684;28;20029;-81
2023/10/01 11:49:34;;;;;;;0.00;0.00;;;25.60;68.20;;;;;;5025147;28;20481;-81
2023/10/01 11:52:37;;;;;;;0.00;0.00;;;25.70;66.30;;;;;;5018232;28;20087;-82
2023/10/01 11:55:18;;;;;;;0.00;0.00;;;25.70;66.50;;;;;;5021572;28;20113;-82
2023/10/01 11:57:51;;;;;;;0.00;0.00;;;25.60;67.60;;;;;;5023339;28;20567;-82
2023/10/01 12:00:32;;;;;;;0.00;0.00;;;25.60;67.40;;;;;;5025559;28;20030;-81
2023/10/01 12:02:58;;;;;;;0.00;0.00;;;25.50;66.50;;;;;;5018394;28;20091;-82
2023/10/01 12:05:38;;;;;;;0.00;0.00;;;25.60;65.80;;;;;;5025423;28;20487;-81
2023/10/01 12:08:05;;;;;;;0.00;0.00;;;25.60;66.00;;;;;;5019867;28;20586;-82
2023/10/01 12:10:36;;;;;;;0.00;0.00;;;25.60;66.00;;;;;;5025486;28;20040;-81
2023/10/01 12:13:07;;;;;;;0.00;0.00;;;25.70;66.30;;;;;;5025441;28;20033;-81
2023/10/01 12:15:51;;;;;;;0.00;0.00;;;25.60;64.90;;;;;;5013787;28;20025;-82
2023/10/01 12:18:17;;;;;;;0.00;0.00;;;25.60;63.90;;;;;;5024247;28;20064;-82
2023/10/01 12:21:24;;;;;;;0.00;0.00;;;25.70;64.40;;;;;;5016004;28;20561;-82
2023/10/01 12:23:33;;;;;;;0.00;0.00;;;25.60;62.50;;;;;;5023681;28;20034;-82
2023/10/01 12:26:31;;;;;;;0.00;0.00;;;25.70;60.90;;;;;;5024786;28;20115;-81
2023/10/01 12:29:11;;;;;;;0.00;0.00;;;25.60;61.20;;;;;;5021395;28;20388;-82
2023/10/01 12:31:30;;;;;;;0.00;0.00;;;25.50;64.30;;;;;;5025193;28;20503;-82
2023/10/01 12:33:58;;;;;;;0.00;0.00;;;25.50;63.90;;;;;;5024724;28;20021;-82
2023/10/01 12:41:31;;;;;;;0.00;0.00;;;25.90;60.70;;;;;;5018025;28;20499;-81
2023/10/01 12:46:51;;;;;;;0.00;0.00;;;25.80;63.80;;;;;;5025552;28;20024;-81
2023/10/01 12:49:18;;;;;;;0.10;0.10;;;25.90;62.20;;;;;;5026565;28;20044;-82
2023/10/01 12:51:48;;;;;;;0.00;0.00;;;26.00;63.90;;;;;;5022740;28;20088;-81
2023/10/01 12:54:27;;;;;;;0.15;0.15;;;26.00;62.60;;;;;;5019383;28;20557;-81
2023/10/01 12:57:03;;;;;;;0.00;0.00;;;25.80;63.70;;;;;;5020658;28;20024;-82
2023/10/01 12:59:44;;;;;;;0.00;0.00;;;25.90;65.60;;;;;;5023187;28;20033;-82
2023/10/01 13:07:45;;;;;;;0.00;0.00;;;26.40;58.40;;;;;;5015041;28;20028;-81
2023/10/01 13:10:12;;;;;;;0.00;0.00;;;26.40;60.10;;;;;;5024557;28;20036;-82
2023/10/01 13:12:56;;;;;;;;;;;26.30;59.40;;;;;;5024595;28;20581;-82
2023/10/01 13:15:40;;;;;;;0.00;0.00;;;26.00;60.20;;;;;;5024625;28;19999;-82
2023/10/01 13:18:17;;;;;;;0.00;0.00;;;26.10;59.20;;;;;;5024507;28;20030;-82
2023/10/01 13:21:27;;;;;;;0.00;0.00;;;25.80;59.40;;;;;;5016799;28;20922;-82
2023/10/01 13:23:41;;;;;;;1.75;1.65;;;25.90;58.90;;;;;;5023024;28;20034;-83
2023/10/01 13:26:32;;;;;;;0.00;0.00;;;26.30;59.60;;;;;;5018811;28;20050;-82
2023/10/01 13:29:00;;;;;;;0.00;0.00;;;26.30;59.80;;;;;;5021400;28;20163;-82
2023/10/01 13:37:11;;;;;;;0.00;0.00;;;26.40;58.40;;;;;;5016806;28;20050;-82
2023/10/01 14:12:11;;;;;;;0.00;0.00;;;26.40;58.40;;;;;;5022841;28;20083;-83
2023/10/01 14:14:37;;;;;;;0.00;0.00;;;26.00;61.40;;;;;;5023048;28;20025;-83
2023/10/01 14:17:14;;;;;;;0.00;0.00;;;26.40;59.70;;;;;;5021362;28;20091;-83
2023/10/01 14:19:51;;;;;;;0.00;0.00;;;25.90;60.60;;;;;;5022906;28;20021;-83
2023/10/01 14:22:20;;;;;;;0.00;0.00;;;25.80;61.80;;;;;;5020145;28;20029;-82
2023/10/01 14:24:52;;;;;;;0.00;0.00;;;25.60;62.80;;;;;;5022482;28;20062;-83
2023/10/01 14:27:29;;;;;;;0.10;0.10;;;25.60;66.30;;;;;;5022910;28;20022;-82
2023/10/01 14:30:02;;;;;;;0.00;0.00;;;25.90;62.50;;;;;;5023274;28;20037;-83
2023/10/01 14:32:36;;;;;;;0.00;0.00;;;25.70;63.70;;;;;;5023132;28;20025;-83
2023/10/01 14:35:15;;;;;;;0.00;0.00;;;25.90;62.60;;;;;;5023353;28;20124;-83
2023/10/01 14:37:55;;;;;;;0.00;0.00;;;25.90;66.40;;;;;;5016302;28;20032;-83
2023/10/01 14:40:25;;;;;;;0.00;0.00;;;25.70;65.80;;;;;;5023808;28;20507;-83
2023/10/01 14:43:00;;;;;;;0.00;0.00;;;25.90;65.20;;;;;;5023205;28;20028;-82
2023/10/01 14:45:43;;;;;;;0.00;0.00;;;26.10;64.00;;;;;;5023428;28;20024;-83
2023/10/01 14:48:09;;;;;;;0.00;0.00;;;25.80;65.00;;;;;;5016307;28;20030;-82
2023/10/01 14:50:42;;;;;;;0.00;0.00;;;25.80;64.80;;;;;;5022353;28;20496;-83
2023/10/01 14:53:08;;;;;;;0.10;0.10;;;25.50;67.30;;;;;;5021279;28;20279;-82
2023/10/01 14:55:41;;;;;;;0.00;0.00;;;25.50;66.40;;;;;;5020764;28;20021;-84
2023/10/01 14:58:15;;;;;;;0.05;0.05;;;25.50;65.70;;;;;;5020147;28;20026;-84
2023/10/01 15:00:52;;;;;;;0.00;0.00;;;25.40;66.70;;;;;;5014448;28;20076;-85